Time,TemperatureF,DewpointF,PressureIn,WindDirection,WindDirectionDegrees,WindSpeedMPH,WindSpeedGustMPH,Humidity,HourlyPrecipIn,Conditions,Clouds,dailyrainin,SolarRadiationWatts/m^2,SoftwareType,DateUTC
2013-02-13 00:02:00,11.0,1.0,-100.00,WNW,299,6.0,18.0,62,0.00,,,0.23,0.000000,,2013-02-13 07:02:00,
2013-02-13 00:11:00,11.0,1.0,-100.00,WNW,299,6.0,18.0,62,0.00,,,0.23,0.000000,,2013-02-13 07:11:00,
2013-02-13 00:22:00,11.0,1.0,-100.00,WNW,299,6.0,18.0,62,0.00,,,0.23,0.000000,,2013-02-13 07:22:00,
2013-02-13 00:31:00,11.0,1.0,-100.00,WNW,299,6.0,18.0,62,0.00,,,0.23,0.000000,,2013-02-13 07:31:00,
2013-02-13 00:52:00,11.0,0.0,-100.00,WNW,298,7.0,14.0,61,0.00,,,0.23,0.000000,,2013-02-13 07:52:00,
2013-02-13 01:01:00,11.0,0.0,-100.00,WNW,298,7.0,14.0,61,0.00,,,0.23,0.000000,,2013-02-13 08:01:00,
2013-02-13 01:11:00,11.0,0.0,-100.00,WNW,298,7.0,14.0,61,0.00,,,0.23,0.000000,,2013-02-13 08:11:00,
2013-02-13 01:21:00,11.0,0.0,-100.00,WNW,298,7.0,14.0,61,0.00,,,0.23,0.000000,,2013-02-13 08:21:00,
2013-02-13 01:32:00,11.0,0.0,-100.00,WNW,298,7.0,14.0,61,0.00,,,0.23,0.000000,,2013-02-13 08:32:00,
2013-02-13 01:52:00,11.0,1.0,-100.00,NNW,342,7.0,17.0,64,0.00,,,0.23,0.000000,,2013-02-13 08:52:00,
2013-02-13 02:01:00,11.0,1.0,-100.00,NNW,342,7.0,17.0,64,0.00,,,0.23,0.000000,,2013-02-13 09:01:00,
2013-02-13 02:11:00,11.0,1.0,-100.00,NNW,342,7.0,17.0,64,0.00,,,0.23,0.000000,,2013-02-13 09:11:00,
2013-02-13 02:21:00,11.0,1.0,-100.00,NNW,342,7.0,17.0,64,0.00,,,0.23,0.000000,,2013-02-13 09:21:00,
2013-02-13 02:31:00,11.0,1.0,-100.00,NNW,342,7.0,17.0,64,0.00,,,0.23,0.000000,,2013-02-13 09:31:00,
2013-02-13 02:52:00,11.0,1.0,-100.00,NW,311,9.0,19.0,62,0.00,,,0.23,0.000000,,2013-02-13 09:52:00,
2013-02-13 03:01:00,11.0,1.0,-100.00,NW,311,9.0,19.0,62,0.00,,,0.23,0.000000,,2013-02-13 10:01:00,
2013-02-13 03:11:00,11.0,1.0,-100.00,NW,311,9.0,19.0,62,0.00,,,0.23,0.000000,,2013-02-13 10:11:00,
2013-02-13 03:21:00,11.0,1.0,-100.00,NW,311,9.0,19.0,62,0.00,,,0.23,0.000000,,2013-02-13 10:21:00,
2013-02-13 03:32:00,11.0,1.0,-100.00,NW,311,9.0,19.0,62,0.00,,,0.23,0.000000,,2013-02-13 10:32:00,
2013-02-13 03:52:00,11.0,1.0,-100.00,WNW,292,9.0,19.0,63,0.00,,,0.23,0.000000,,2013-02-13 10:52:00,
2013-02-13 04:01:00,11.0,1.0,-100.00,WNW,292,9.0,19.0,63,0.00,,,0.23,0.000000,,2013-02-13 11:01:00,
2013-02-13 04:11:00,11.0,1.0,-100.00,WNW,292,9.0,19.0,63,0.00,,,0.23,0.000000,,2013-02-13 11:11:00,
2013-02-13 04:22:00,11.0,1.0,-100.00,WNW,292,9.0,19.0,63,0.00,,,0.23,0.000000,,2013-02-13 11:22:00,
2013-02-13 04:32:00,11.0,1.0,-100.00,WNW,292,9.0,19.0,63,0.00,,,0.23,0.000000,,2013-02-13 11:32:00,
2013-02-13 04:52:00,11.0,2.0,-100.00,WNW,292,10.0,17.0,65,0.00,,,0.23,0.000000,,2013-02-13 11:52:00,
2013-02-13 05:02:00,11.0,2.0,-100.00,WNW,292,10.0,17.0,65,0.00,,,0.23,0.000000,,2013-02-13 12:02:00,
2013-02-13 05:11:00,11.0,2.0,-100.00,WNW,292,10.0,17.0,65,0.00,,,0.23,0.000000,,2013-02-13 12:11:00,
2013-02-13 05:22:00,11.0,2.0,-100.00,WNW,292,10.0,17.0,65,0.00,,,0.23,0.000000,,2013-02-13 12:22:00,
2013-02-13 05:32:00,11.0,2.0,-100.00,WNW,292,10.0,17.0,65,0.00,,,0.23,0.000000,,2013-02-13 12:32:00,
2013-02-13 05:52:00,11.0,1.0,-100.00,West,279,11.0,19.0,64,0.00,,,0.23,0.000000,,2013-02-13 12:52:00,
2013-02-13 06:02:00,11.0,1.0,-100.00,West,279,11.0,19.0,64,0.00,,,0.23,0.000000,,2013-02-13 13:02:00,
2013-02-13 06:11:00,11.0,1.0,-100.00,West,279,11.0,19.0,64,0.00,,,0.23,0.000000,,2013-02-13 13:11:00,
2013-02-13 06:21:00,11.0,1.0,-100.00,West,279,11.0,19.0,64,0.00,,,0.23,0.000000,,2013-02-13 13:21:00,
2013-02-13 06:32:00,11.0,1.0,-100.00,West,279,11.0,19.0,64,0.00,,,0.23,0.000000,,2013-02-13 13:32:00,
2013-02-13 06:52:00,11.0,1.0,-100.00,NW,322,9.0,16.0,63,0.00,,,0.23,0.000000,,2013-02-13 13:52:00,
2013-02-13 07:01:00,11.0,1.0,-100.00,NW,322,9.0,16.0,63,0.00,,,0.23,0.000000,,2013-02-13 14:01:00,
2013-02-13 07:11:00,11.0,1.0,-100.00,NW,322,9.0,16.0,63,0.00,,,0.23,0.000000,,2013-02-13 14:11:00,
2013-02-13 07:21:00,11.0,1.0,-100.00,NW,322,9.0,16.0,63,0.00,,,0.23,0.000000,,2013-02-13 14:21:00,
2013-02-13 07:31:00,11.0,1.0,-100.00,NW,322,9.0,16.0,63,0.00,,,0.23,0.000000,,2013-02-13 14:31:00,
2013-02-13 07:52:00,11.0,2.0,-100.00,WSW,253,8.0,17.0,65,0.00,,,0.23,6.000000,,2013-02-13 14:52:00,
2013-02-13 08:01:00,11.0,2.0,-100.00,WSW,253,8.0,17.0,65,0.00,,,0.23,6.000000,,2013-02-13 15:01:00,
2013-02-13 08:11:00,11.0,2.0,-100.00,WSW,253,8.0,17.0,65,0.00,,,0.23,6.000000,,2013-02-13 15:11:00,
2013-02-13 08:21:00,11.0,2.0,-100.00,WSW,253,8.0,17.0,65,0.00,,,0.23,6.000000,,2013-02-13 15:21:00,
2013-02-13 08:32:00,11.0,2.0,-100.00,WSW,253,8.0,17.0,65,0.00,,,0.23,6.000000,,2013-02-13 15:32:00,
2013-02-13 08:52:00,12.0,1.0,-100.00,NW,313,4.0,12.0,60,0.00,,,0.23,28.000000,,2013-02-13 15:52:00,
2013-02-13 09:01:00,12.0,1.0,-100.00,NW,313,4.0,12.0,60,0.00,,,0.23,28.000000,,2013-02-13 16:01:00,
2013-02-13 09:11:00,12.0,1.0,-100.00,NW,313,4.0,12.0,60,0.00,,,0.23,28.000000,,2013-02-13 16:11:00,
2013-02-13 09:21:00,12.0,1.0,-100.00,NW,313,4.0,12.0,60,0.00,,,0.23,28.000000,,2013-02-13 16:21:00,
2013-02-13 09:31:00,12.0,1.0,-100.00,NW,313,4.0,12.0,60,0.00,,,0.23,28.000000,,2013-02-13 16:31:00,
2013-02-13 09:52:00,18.0,4.0,-100.00,NW,306,8.0,13.0,53,0.00,,,0.23,226.000000,,2013-02-13 16:52:00,
2013-02-13 10:01:00,18.0,4.0,-100.00,NW,306,8.0,13.0,53,0.00,,,0.23,226.000000,,2013-02-13 17:01:00,
2013-02-13 10:11:00,18.0,4.0,-100.00,NW,306,8.0,13.0,53,0.00,,,0.23,226.000000,,2013-02-13 17:11:00,
2013-02-13 10:21:00,18.0,4.0,-100.00,NW,306,8.0,13.0,53,0.00,,,0.23,226.000000,,2013-02-13 17:21:00,
2013-02-13 10:31:00,18.0,4.0,-100.00,NW,306,8.0,13.0,53,0.00,,,0.23,226.000000,,2013-02-13 17:31:00,
2013-02-13 10:52:00,23.0,7.0,-100.00,WNW,302,8.0,15.0,49,0.00,,,0.23,515.000000,,2013-02-13 17:52:00,
2013-02-13 11:02:00,23.0,7.0,-100.00,WNW,302,8.0,15.0,49,0.00,,,0.23,515.000000,,2013-02-13 18:02:00,
2013-02-13 11:11:00,23.0,7.0,-100.00,WNW,302,8.0,15.0,49,0.00,,,0.23,515.000000,,2013-02-13 18:11:00,
2013-02-13 11:23:00,23.0,7.0,-100.00,WNW,302,8.0,15.0,49,0.00,,,0.23,515.000000,,2013-02-13 18:23:00,
2013-02-13 11:32:00,23.0,7.0,-100.00,WNW,302,8.0,15.0,49,0.00,,,0.23,515.000000,,2013-02-13 18:32:00,
2013-02-13 11:52:00,27.0,7.0,-100.00,NW,311,8.0,13.0,42,0.00,,,0.22,631.000000,,2013-02-13 18:52:00,
2013-02-13 12:01:00,27.0,7.0,-100.00,NW,311,8.0,13.0,42,0.00,,,0.22,631.000000,,2013-02-13 19:01:00,
2013-02-13 12:11:00,27.0,7.0,-100.00,NW,311,8.0,13.0,42,0.00,,,0.22,631.000000,,2013-02-13 19:11:00,
2013-02-13 12:21:00,27.0,7.0,-100.00,NW,311,8.0,13.0,42,0.00,,,0.22,631.000000,,2013-02-13 19:21:00,
2013-02-13 12:31:00,27.0,7.0,-100.00,NW,311,8.0,13.0,42,0.00,,,0.22,631.000000,,2013-02-13 19:31:00,
2013-02-13 12:52:00,30.0,8.0,-100.00,NW,305,15.0,26.0,38,0.00,,,0.19,659.000000,,2013-02-13 19:52:00,
2013-02-13 13:02:00,30.0,8.0,-100.00,NW,305,15.0,26.0,38,0.00,,,0.19,659.000000,,2013-02-13 20:02:00,
2013-02-13 13:11:00,30.0,8.0,-100.00,NW,305,15.0,26.0,38,0.00,,,0.19,659.000000,,2013-02-13 20:11:00,
2013-02-13 13:21:00,30.0,8.0,-100.00,NW,305,15.0,26.0,38,0.00,,,0.19,659.000000,,2013-02-13 20:21:00,
2013-02-13 13:31:00,30.0,8.0,-100.00,NW,305,15.0,26.0,38,0.00,,,0.19,659.000000,,2013-02-13 20:31:00,
2013-02-13 13:52:00,33.0,6.0,-100.00,WNW,287,12.0,25.0,32,0.00,,,0.12,707.000000,,2013-02-13 20:52:00,
2013-02-13 14:01:00,33.0,6.0,-100.00,WNW,287,12.0,25.0,32,0.00,,,0.12,707.000000,,2013-02-13 21:01:00,
2013-02-13 14:11:00,33.0,6.0,-100.00,WNW,287,12.0,25.0,32,0.00,,,0.12,707.000000,,2013-02-13 21:11:00,
2013-02-13 14:21:00,33.0,6.0,-100.00,WNW,287,12.0,25.0,32,0.00,,,0.12,707.000000,,2013-02-13 21:21:00,
2013-02-13 14:31:00,33.0,6.0,-100.00,WNW,287,12.0,25.0,32,0.00,,,0.12,707.000000,,2013-02-13 21:31:00,
2013-02-13 14:52:00,32.0,7.0,-100.00,WSW,254,13.0,20.0,34,0.00,,,0.06,623.000000,,2013-02-13 21:52:00,
2013-02-13 15:02:00,32.0,7.0,-100.00,WSW,254,13.0,20.0,34,0.00,,,0.06,623.000000,,2013-02-13 22:02:00,
2013-02-13 15:11:00,32.0,7.0,-100.00,WSW,254,13.0,20.0,34,0.00,,,0.06,623.000000,,2013-02-13 22:11:00,
2013-02-13 15:21:00,32.0,7.0,-100.00,WSW,254,13.0,20.0,34,0.00,,,0.06,623.000000,,2013-02-13 22:21:00,
2013-02-13 15:31:00,32.0,7.0,-100.00,WSW,254,13.0,20.0,34,0.00,,,0.06,623.000000,,2013-02-13 22:31:00,
2013-02-13 15:52:00,33.0,8.0,-100.00,West,272,10.0,19.0,34,0.00,,,0.02,483.000000,,2013-02-13 22:52:00,
2013-02-13 16:01:00,33.0,8.0,-100.00,West,272,10.0,19.0,34,0.00,,,0.02,483.000000,,2013-02-13 23:01:00,
2013-02-13 16:11:00,33.0,8.0,-100.00,West,272,10.0,19.0,34,0.00,,,0.02,483.000000,,2013-02-13 23:11:00,
2013-02-13 16:21:00,33.0,8.0,-100.00,West,272,10.0,19.0,34,0.00,,,0.02,483.000000,,2013-02-13 23:21:00,
2013-02-13 16:32:00,33.0,8.0,-100.00,West,272,10.0,19.0,34,0.00,,,0.02,483.000000,,2013-02-13 23:32:00,
2013-02-13 16:52:00,31.0,8.0,-100.00,WSW,254,12.0,22.0,37,0.00,,,0.01,297.000000,,2013-02-13 23:52:00,
2013-02-13 17:02:00,31.0,8.0,-100.00,WSW,254,12.0,22.0,37,0.00,,,0.01,297.000000,,2013-02-14 00:02:00,
2013-02-13 17:11:00,31.0,8.0,-100.00,WSW,254,12.0,22.0,37,0.00,,,0.01,297.000000,,2013-02-14 00:11:00,
2013-02-13 17:21:00,31.0,8.0,-100.00,WSW,254,12.0,22.0,37,0.00,,,0.01,297.000000,,2013-02-14 00:21:00,
2013-02-13 17:32:00,31.0,8.0,-100.00,WSW,254,12.0,22.0,37,0.00,,,0.01,297.000000,,2013-02-14 00:32:00,
2013-02-13 17:52:00,25.0,8.0,-100.00,WSW,244,11.0,20.0,48,0.00,,,0.00,82.000000,,2013-02-14 00:52:00,
2013-02-13 18:01:00,25.0,8.0,-100.00,WSW,244,11.0,20.0,48,0.00,,,0.00,82.000000,,2013-02-14 01:01:00,
2013-02-13 18:11:00,25.0,8.0,-100.00,WSW,244,11.0,20.0,48,0.00,,,0.00,82.000000,,2013-02-14 01:11:00,
2013-02-13 18:21:00,25.0,8.0,-100.00,WSW,244,11.0,20.0,48,0.00,,,0.00,82.000000,,2013-02-14 01:21:00,
2013-02-13 18:31:00,25.0,8.0,-100.00,WSW,244,11.0,20.0,48,0.00,,,0.00,82.000000,,2013-02-14 01:31:00,
2013-02-13 18:52:00,23.0,7.0,-100.00,WSW,247,10.0,18.0,50,0.00,,,0.00,2.000000,,2013-02-14 01:52:00,
2013-02-13 19:01:00,23.0,7.0,-100.00,WSW,247,10.0,18.0,50,0.00,,,0.00,2.000000,,2013-02-14 02:01:00,
2013-02-13 19:11:00,23.0,7.0,-100.00,WSW,247,10.0,18.0,50,0.00,,,0.00,2.000000,,2013-02-14 02:11:00,
2013-02-13 19:21:00,23.0,7.0,-100.00,WSW,247,10.0,18.0,50,0.00,,,0.00,2.000000,,2013-02-14 02:21:00,
2013-02-13 19:31:00,23.0,7.0,-100.00,WSW,247,10.0,18.0,50,0.00,,,0.00,2.000000,,2013-02-14 02:31:00,
2013-02-13 20:02:00,23.0,7.0,-100.00,WSW,245,7.0,19.0,49,0.00,,,0.00,0.000000,,2013-02-14 03:02:00,
2013-02-13 20:11:00,23.0,7.0,-100.00,WSW,245,7.0,19.0,49,0.00,,,0.00,0.000000,,2013-02-14 03:11:00,
2013-02-13 20:22:00,23.0,7.0,-100.00,WSW,245,7.0,19.0,49,0.00,,,0.00,0.000000,,2013-02-14 03:22:00,
2013-02-13 20:31:00,23.0,7.0,-100.00,WSW,245,7.0,19.0,49,0.00,,,0.00,0.000000,,2013-02-14 03:31:00,
2013-02-13 20:52:00,21.0,7.0,-100.00,West,281,7.0,13.0,54,0.00,,,0.00,0.000000,,2013-02-14 03:52:00,
2013-02-13 21:01:00,21.0,7.0,-100.00,West,281,7.0,13.0,54,0.00,,,0.00,0.000000,,2013-02-14 04:01:00,
2013-02-13 21:12:00,21.0,7.0,-100.00,West,281,7.0,13.0,54,0.00,,,0.00,0.000000,,2013-02-14 04:12:00,
2013-02-13 21:21:00,21.0,7.0,-100.00,West,281,7.0,13.0,54,0.00,,,0.00,0.000000,,2013-02-14 04:21:00,
2013-02-13 21:31:00,21.0,7.0,-100.00,West,281,7.0,13.0,54,0.00,,,0.00,0.000000,,2013-02-14 04:31:00,
2013-02-13 21:52:00,20.0,6.0,-100.00,NW,317,6.0,16.0,53,0.00,,,0.00,0.000000,,2013-02-14 04:52:00,
2013-02-13 22:02:00,20.0,6.0,-100.00,NW,317,6.0,16.0,53,0.00,,,0.00,0.000000,,2013-02-14 05:02:00,
2013-02-13 22:11:00,20.0,6.0,-100.00,NW,317,6.0,16.0,53,0.00,,,0.00,0.000000,,2013-02-14 05:11:00,
2013-02-13 22:21:00,20.0,6.0,-100.00,NW,317,6.0,16.0,53,0.00,,,0.00,0.000000,,2013-02-14 05:21:00,
2013-02-13 22:31:00,20.0,6.0,-100.00,NW,317,6.0,16.0,53,0.00,,,0.00,0.000000,,2013-02-14 05:31:00,
2013-02-13 22:52:00,17.0,7.0,-100.00,NNW,343,5.0,14.0,63,0.00,,,0.00,0.000000,,2013-02-14 05:52:00,
2013-02-13 23:02:00,17.0,7.0,-100.00,NNW,343,5.0,14.0,63,0.00,,,0.00,0.000000,,2013-02-14 06:02:00,
2013-02-13 23:11:00,17.0,7.0,-100.00,NNW,343,5.0,14.0,63,0.00,,,0.00,0.000000,,2013-02-14 06:11:00,
2013-02-13 23:21:00,17.0,7.0,-100.00,NNW,343,5.0,14.0,63,0.00,,,0.00,0.000000,,2013-02-14 06:21:00,
2013-02-13 23:31:00,17.0,7.0,-100.00,NNW,343,5.0,14.0,63,0.00,,,0.00,0.000000,,2013-02-14 06:31:00,
2013-02-13 23:52:00,18.0,5.0,-100.00,NW,312,6.0,14.0,57,0.00,,,0.00,0.000000,,2013-02-14 06:52:00,